createdAt,value
2023-01-26T00:08:39.088Z,-3.77
2023-01-26T00:18:42.654Z,-3.77
2023-01-26T00:28:47.103Z,-3.77
2023-01-26T00:38:49.955Z,-3.76
2023-01-26T00:48:54.465Z,-3.75
2023-01-26T00:58:57.305Z,-3.74
2023-01-26T01:09:02.212Z,-3.73
2023-01-26T01:19:05.110Z,-3.71
2023-01-26T01:29:13.119Z,-3.70
2023-01-26T01:49:20.546Z,-3.66
2023-01-26T01:59:23.761Z,-3.63
2023-01-26T02:09:51.846Z,-3.61
2023-01-26T02:20:04.663Z,-3.59
2023-01-26T02:30:11.620Z,-3.59
2023-01-26T04:52:56.883Z,-3.31
2023-01-26T05:02:59.724Z,-3.29
2023-01-26T05:13:04.168Z,-3.28
2023-01-26T05:23:07.187Z,-3.26
2023-01-26T05:33:12.257Z,-3.24
2023-01-26T05:43:15.099Z,-3.22
2023-01-26T05:53:20.008Z,-3.19
2023-01-26T06:03:22.950Z,-3.20
2023-01-26T06:13:27.268Z,-3.17
2023-01-26T06:23:30.549Z,-3.14
2023-01-26T06:33:37.480Z,-3.12
2023-01-26T06:43:40.455Z,-3.09
2023-01-26T06:53:49.059Z,-3.08
2023-01-26T07:03:54.963Z,-3.05
2023-01-26T07:13:59.696Z,-3.02
2023-01-26T07:24:02.650Z,-2.99
2023-01-26T07:34:06.965Z,-2.95
2023-01-26T07:44:10.800Z,-2.92
2023-01-26T07:54:15.174Z,-2.89
2023-01-26T08:04:18.784Z,-2.84
2023-01-26T08:14:23.226Z,-2.78
2023-01-26T08:24:31.337Z,-2.71
2023-01-26T08:34:35.836Z,-2.69
2023-01-26T08:44:41.480Z,-2.64
2023-01-26T08:54:45.833Z,-2.62
2023-01-26T09:04:51.790Z,-2.58
2023-01-26T09:14:56.244Z,-2.57
2023-01-26T09:24:59.348Z,-2.54
2023-01-26T09:35:03.865Z,-2.52
2023-01-26T09:45:24.197Z,-2.49
2023-01-26T09:55:30.621Z,-2.47
2023-01-26T10:05:42.519Z,-2.49
2023-01-26T10:15:51.318Z,-2.48
2023-01-26T10:25:56.993Z,-2.47
2023-01-26T10:36:04.078Z,-2.48
2023-01-26T10:46:07.136Z,-2.48
2023-01-26T10:56:16.475Z,-2.47
2023-01-26T11:06:19.405Z,-2.49
2023-01-26T11:16:28.466Z,-2.51
2023-01-26T11:26:58.427Z,-2.54
2023-01-26T11:37:29.624Z,-2.55
2023-01-26T11:47:50.116Z,-2.56
2023-01-26T11:58:14.966Z,-2.58
2023-01-26T12:08:23.957Z,-2.60
2023-01-26T12:18:49.114Z,-2.63
2023-01-26T12:29:17.389Z,-2.67
2023-01-26T12:39:33.586Z,-2.71
2023-01-26T12:49:43.554Z,-2.74
2023-01-26T12:59:49.218Z,-2.77
2023-01-26T13:10:19.606Z,-2.79
2023-01-26T13:20:51.140Z,-2.83
2023-01-26T13:31:05.215Z,-2.87
2023-01-26T13:41:20.879Z,-2.90
2023-01-26T13:51:26.519Z,-2.97
2023-01-26T14:01:31.979Z,-3.02
2023-01-26T14:11:37.762Z,-3.07
2023-01-26T14:21:51.129Z,-3.12
2023-01-26T14:31:56.562Z,-3.18
2023-01-26T14:42:02.041Z,-3.25
2023-01-26T14:52:05.209Z,-3.30
2023-01-26T15:02:18.290Z,-3.34
2023-01-26T15:12:23.900Z,-3.40
2023-01-26T15:22:28.492Z,-3.45
2023-01-26T15:32:37.492Z,-3.48
2023-01-26T15:42:44.393Z,-3.51
2023-01-26T15:52:52.650Z,-3.54
2023-01-26T16:03:09.957Z,-3.56
2023-01-26T16:13:34.081Z,-3.64
2023-01-26T16:23:38.974Z,-3.68
2023-01-26T16:33:44.399Z,-3.71
2023-01-26T16:44:01.099Z,-3.74
2023-01-26T16:54:09.828Z,-3.77
2023-01-26T17:04:14.350Z,-3.78
2023-01-26T17:14:17.400Z,-3.79
2023-01-26T17:24:24.813Z,-3.82
2023-01-26T17:34:27.907Z,-3.82
2023-01-26T17:44:32.481Z,-3.84
2023-01-26T17:54:39.561Z,-3.87
2023-01-26T18:04:46.289Z,-3.87
2023-01-26T18:14:57.552Z,-3.87
2023-01-26T18:25:02.668Z,-3.88
2023-01-26T18:35:09.869Z,-3.89
2023-01-26T18:45:19.415Z,-3.95
2023-01-26T18:55:25.215Z,-3.98
2023-01-26T19:05:33.293Z,-3.99
2023-01-26T19:15:37.467Z,-4.04
2023-01-26T19:25:41.946Z,-4.09
2023-01-26T19:35:45.358Z,-4.10
2023-01-26T19:45:50.676Z,-4.11
2023-01-26T19:55:53.588Z,-4.11
2023-01-26T20:05:58.422Z,-4.13
2023-01-26T20:16:09.260Z,-4.14
2023-01-26T20:26:14.219Z,-4.16
2023-01-26T20:36:20.113Z,-4.19
2023-01-26T20:46:28.135Z,-4.23
2023-01-26T20:56:34.714Z,-4.27
2023-01-26T21:06:46.489Z,-4.30
2023-01-26T21:16:52.188Z,-4.33
2023-01-26T21:27:02.983Z,-4.35
2023-01-26T21:37:06.704Z,-4.40
2023-01-26T21:47:13.872Z,-4.42
2023-01-26T21:57:37.649Z,-4.44
2023-01-26T22:07:41.950Z,-4.46
2023-01-26T22:17:46.179Z,-4.50
2023-01-26T22:27:50.574Z,-4.53
2023-01-26T22:37:56.638Z,-4.59
2023-01-26T22:48:00.905Z,-4.61
2023-01-26T22:58:04.985Z,-4.63
2023-01-26T23:08:09.893Z,-4.66
2023-01-26T23:18:12.951Z,-4.69
2023-01-26T23:28:19.813Z,-4.70
2023-01-26T23:38:24.471Z,-4.73
2023-01-26T23:48:28.869Z,-4.77
2023-01-26T23:58:31.722Z,-4.79
